sensor_id;sensor_type;location;lat;lon;timestamp;P1;durP1;ratioP1;P2;durP2;ratioP2
52031;SDS011;38044;45.148;39.604;2023-05-18T00:01:08;10.98;;;7.18;;
52031;SDS011;38044;45.148;39.604;2023-05-18T00:03:34;9.00;;;7.50;;
52031;SDS011;38044;45.148;39.604;2023-05-18T00:06:00;12.50;;;7.28;;
52031;SDS011;38044;45.148;39.604;2023-05-18T00:08:29;12.80;;;6.90;;
52031;SDS011;38044;45.148;39.604;2023-05-18T00:10:55;11.35;;;7.63;;
52031;SDS011;38044;45.148;39.604;2023-05-18T00:13:22;10.00;;;7.13;;
52031;SDS011;38044;45.148;39.604;2023-05-18T00:15:47;13.20;;;7.80;;
52031;SDS011;38044;45.148;39.604;2023-05-18T00:18:13;11.55;;;7.20;;
52031;SDS011;38044;45.148;39.604;2023-05-18T00:20:39;11.43;;;7.75;;
52031;SDS011;38044;45.148;39.604;2023-05-18T00:23:05;14.63;;;7.82;;
52031;SDS011;38044;45.148;39.604;2023-05-18T00:25:34;11.07;;;7.40;;
52031;SDS011;38044;45.148;39.604;2023-05-18T00:28:00;11.15;;;7.82;;
52031;SDS011;38044;45.148;39.604;2023-05-18T00:30:26;11.23;;;8.52;;
52031;SDS011;38044;45.148;39.604;2023-05-18T00:32:52;13.88;;;7.82;;
52031;SDS011;38044;45.148;39.604;2023-05-18T00:35:18;13.45;;;8.05;;
52031;SDS011;38044;45.148;39.604;2023-05-18T00:37:44;11.65;;;8.02;;
52031;SDS011;38044;45.148;39.604;2023-05-18T00:40:10;13.90;;;8.88;;
52031;SDS011;38044;45.148;39.604;2023-05-18T00:42:36;12.48;;;8.35;;
52031;SDS011;38044;45.148;39.604;2023-05-18T00:45:02;14.38;;;8.23;;
52031;SDS011;38044;45.148;39.604;2023-05-18T00:47:28;11.50;;;8.15;;
52031;SDS011;38044;45.148;39.604;2023-05-18T00:49:54;15.93;;;9.07;;
52031;SDS011;38044;45.148;39.604;2023-05-18T00:52:20;12.07;;;7.75;;
52031;SDS011;38044;45.148;39.604;2023-05-18T00:54:46;14.88;;;8.50;;
52031;SDS011;38044;45.148;39.604;2023-05-18T00:57:11;14.88;;;7.93;;
52031;SDS011;38044;45.148;39.604;2023-05-18T00:59:37;13.70;;;8.30;;
52031;SDS011;38044;45.148;39.604;2023-05-18T01:02:05;14.48;;;8.30;;
52031;SDS011;38044;45.148;39.604;2023-05-18T01:04:31;13.20;;;8.80;;
52031;SDS011;38044;45.148;39.604;2023-05-18T01:06:58;11.98;;;8.35;;
52031;SDS011;38044;45.148;39.604;2023-05-18T01:09:30;15.57;;;8.43;;
52031;SDS011;38044;45.148;39.604;2023-05-18T01:17:04;15.15;;;9.50;;
52031;SDS011;38044;45.148;39.604;2023-05-18T01:25:16;14.93;;;9.65;;
52031;SDS011;38044;45.148;39.604;2023-05-18T01:27:43;16.63;;;9.60;;
52031;SDS011;38044;45.148;39.604;2023-05-18T01:30:14;14.95;;;9.75;;
52031;SDS011;38044;45.148;39.604;2023-05-18T01:32:46;14.52;;;9.80;;
52031;SDS011;38044;45.148;39.604;2023-05-18T01:35:12;15.68;;;8.68;;
52031;SDS011;38044;45.148;39.604;2023-05-18T01:37:38;13.02;;;8.63;;
52031;SDS011;38044;45.148;39.604;2023-05-18T01:40:04;13.85;;;8.88;;
52031;SDS011;38044;45.148;39.604;2023-05-18T01:42:33;13.85;;;9.18;;
52031;SDS011;38044;45.148;39.604;2023-05-18T01:45:08;12.93;;;9.15;;
52031;SDS011;38044;45.148;39.604;2023-05-18T01:47:40;14.98;;;8.77;;
52031;SDS011;38044;45.148;39.604;2023-05-18T01:50:12;13.23;;;8.70;;
52031;SDS011;38044;45.148;39.604;2023-05-18T01:55:16;12.18;;;8.45;;
52031;SDS011;38044;45.148;39.604;2023-05-18T01:57:44;14.82;;;8.57;;
52031;SDS011;38044;45.148;39.604;2023-05-18T02:00:12;14.00;;;9.23;;
52031;SDS011;38044;45.148;39.604;2023-05-18T02:02:40;12.70;;;9.10;;
52031;SDS011;38044;45.148;39.604;2023-05-18T02:05:06;15.27;;;9.30;;
52031;SDS011;38044;45.148;39.604;2023-05-18T02:07:36;15.35;;;9.50;;
52031;SDS011;38044;45.148;39.604;2023-05-18T02:10:03;13.75;;;8.60;;
52031;SDS011;38044;45.148;39.604;2023-05-18T02:12:32;13.82;;;8.90;;
52031;SDS011;38044;45.148;39.604;2023-05-18T02:14:58;12.80;;;9.00;;
52031;SDS011;38044;45.148;39.604;2023-05-18T02:17:30;14.07;;;8.30;;
52031;SDS011;38044;45.148;39.604;2023-05-18T02:19:57;12.88;;;8.60;;
52031;SDS011;38044;45.148;39.604;2023-05-18T02:22:23;13.27;;;8.25;;
52031;SDS011;38044;45.148;39.604;2023-05-18T02:24:48;16.27;;;8.38;;
52031;SDS011;38044;45.148;39.604;2023-05-18T02:27:15;12.75;;;8.77;;
52031;SDS011;38044;45.148;39.604;2023-05-18T02:29:40;10.85;;;8.25;;
52031;SDS011;38044;45.148;39.604;2023-05-18T02:32:06;11.57;;;8.50;;
52031;SDS011;38044;45.148;39.604;2023-05-18T02:34:33;11.55;;;8.70;;
52031;SDS011;38044;45.148;39.604;2023-05-18T02:37:01;14.43;;;8.27;;
52031;SDS011;38044;45.148;39.604;2023-05-18T02:39:28;10.88;;;8.82;;
52031;SDS011;38044;45.148;39.604;2023-05-18T02:41:54;13.73;;;9.07;;
52031;SDS011;38044;45.148;39.604;2023-05-18T02:44:20;13.60;;;8.90;;
52031;SDS011;38044;45.148;39.604;2023-05-18T02:46:46;19.08;;;8.18;;
52031;SDS011;38044;45.148;39.604;2023-05-18T02:49:11;13.93;;;8.68;;
52031;SDS011;38044;45.148;39.604;2023-05-18T02:51:37;20.15;;;9.60;;
52031;SDS011;38044;45.148;39.604;2023-05-18T02:54:03;13.05;;;8.18;;
52031;SDS011;38044;45.148;39.604;2023-05-18T02:56:29;11.02;;;8.23;;
52031;SDS011;38044;45.148;39.604;2023-05-18T02:58:57;12.48;;;8.73;;
52031;SDS011;38044;45.148;39.604;2023-05-18T03:01:24;13.35;;;8.40;;
52031;SDS011;38044;45.148;39.604;2023-05-18T03:03:54;9.73;;;8.20;;
52031;SDS011;38044;45.148;39.604;2023-05-18T03:06:24;14.32;;;9.07;;
52031;SDS011;38044;45.148;39.604;2023-05-18T03:08:57;15.85;;;8.40;;
52031;SDS011;38044;45.148;39.604;2023-05-18T03:11:23;14.18;;;8.20;;
52031;SDS011;38044;45.148;39.604;2023-05-18T03:13:50;15.25;;;8.80;;
52031;SDS011;38044;45.148;39.604;2023-05-18T03:16:16;19.95;;;7.95;;
52031;SDS011;38044;45.148;39.604;2023-05-18T03:18:42;14.73;;;8.27;;
52031;SDS011;38044;45.148;39.604;2023-05-18T03:21:08;11.70;;;7.65;;
52031;SDS011;38044;45.148;39.604;2023-05-18T03:23:37;12.85;;;8.73;;
52031;SDS011;38044;45.148;39.604;2023-05-18T03:26:04;12.13;;;8.80;;
52031;SDS011;38044;45.148;39.604;2023-05-18T03:28:35;20.33;;;8.52;;
52031;SDS011;38044;45.148;39.604;2023-05-18T03:31:04;12.68;;;8.25;;
52031;SDS011;38044;45.148;39.604;2023-05-18T03:33:30;12.35;;;8.35;;
52031;SDS011;38044;45.148;39.604;2023-05-18T03:35:56;12.70;;;8.18;;
52031;SDS011;38044;45.148;39.604;2023-05-18T03:38:24;11.02;;;8.10;;
52031;SDS011;38044;45.148;39.604;2023-05-18T03:40:50;12.23;;;8.10;;
52031;SDS011;38044;45.148;39.604;2023-05-18T03:43:16;12.55;;;7.85;;
52031;SDS011;38044;45.148;39.604;2023-05-18T03:45:41;10.40;;;7.72;;
52031;SDS011;38044;45.148;39.604;2023-05-18T03:48:07;13.90;;;7.40;;
52031;SDS011;38044;45.148;39.604;2023-05-18T03:50:33;9.90;;;7.38;;
52031;SDS011;38044;45.148;39.604;2023-05-18T03:52:59;11.90;;;9.27;;
52031;SDS011;38044;45.148;39.604;2023-05-18T03:55:25;12.45;;;8.07;;
52031;SDS011;38044;45.148;39.604;2023-05-18T03:57:51;10.70;;;8.18;;
52031;SDS011;38044;45.148;39.604;2023-05-18T04:00:18;15.82;;;7.78;;
52031;SDS011;38044;45.148;39.604;2023-05-18T04:02:44;33.65;;;8.73;;
52031;SDS011;38044;45.148;39.604;2023-05-18T04:05:10;13.15;;;7.63;;
52031;SDS011;38044;45.148;39.604;2023-05-18T04:07:36;11.82;;;7.53;;
52031;SDS011;38044;45.148;39.604;2023-05-18T04:10:08;9.20;;;7.18;;
52031;SDS011;38044;45.148;39.604;2023-05-18T04:12:35;8.98;;;7.28;;
52031;SDS011;38044;45.148;39.604;2023-05-18T04:15:02;11.13;;;7.00;;
52031;SDS011;38044;45.148;39.604;2023-05-18T04:17:28;8.98;;;6.45;;
52031;SDS011;38044;45.148;39.604;2023-05-18T04:19:54;10.02;;;7.43;;
52031;SDS011;38044;45.148;39.604;2023-05-18T04:22:20;9.48;;;6.90;;
52031;SDS011;38044;45.148;39.604;2023-05-18T04:24:46;10.80;;;6.93;;
52031;SDS011;38044;45.148;39.604;2023-05-18T04:27:12;121.90;;;13.68;;
52031;SDS011;38044;45.148;39.604;2023-05-18T04:29:39;7.35;;;6.32;;
52031;SDS011;38044;45.148;39.604;2023-05-18T04:32:08;10.80;;;6.55;;
52031;SDS011;38044;45.148;39.604;2023-05-18T04:34:35;10.60;;;6.28;;
52031;SDS011;38044;45.148;39.604;2023-05-18T04:37:05;10.32;;;5.88;;
52031;SDS011;38044;45.148;39.604;2023-05-18T04:39:34;13.98;;;6.75;;
52031;SDS011;38044;45.148;39.604;2023-05-18T04:42:03;9.18;;;6.43;;
52031;SDS011;38044;45.148;39.604;2023-05-18T04:44:30;8.52;;;6.28;;
52031;SDS011;38044;45.148;39.604;2023-05-18T04:46:58;6.50;;;5.63;;
52031;SDS011;38044;45.148;39.604;2023-05-18T04:49:24;15.93;;;6.30;;
52031;SDS011;38044;45.148;39.604;2023-05-18T04:51:52;9.25;;;6.72;;
52031;SDS011;38044;45.148;39.604;2023-05-18T04:54:27;12.73;;;5.95;;
52031;SDS011;38044;45.148;39.604;2023-05-18T04:56:56;11.88;;;6.30;;
52031;SDS011;38044;45.148;39.604;2023-05-18T04:59:23;10.20;;;5.85;;
52031;SDS011;38044;45.148;39.604;2023-05-18T05:01:50;35.78;;;6.88;;
52031;SDS011;38044;45.148;39.604;2023-05-18T05:04:18;9.65;;;6.38;;
52031;SDS011;38044;45.148;39.604;2023-05-18T05:06:45;22.85;;;6.82;;
52031;SDS011;38044;45.148;39.604;2023-05-18T05:09:11;9.65;;;6.32;;
52031;SDS011;38044;45.148;39.604;2023-05-18T05:11:40;7.18;;;5.45;;
52031;SDS011;38044;45.148;39.604;2023-05-18T05:14:06;8.85;;;5.65;;
52031;SDS011;38044;45.148;39.604;2023-05-18T05:16:32;8.93;;;5.57;;
52031;SDS011;38044;45.148;39.604;2023-05-18T05:18:59;10.05;;;5.20;;
52031;SDS011;38044;45.148;39.604;2023-05-18T05:21:24;8.98;;;5.40;;
52031;SDS011;38044;45.148;39.604;2023-05-18T05:23:50;6.55;;;5.38;;
52031;SDS011;38044;45.148;39.604;2023-05-18T05:26:17;6.20;;;5.38;;
52031;SDS011;38044;45.148;39.604;2023-05-18T05:28:43;8.25;;;6.05;;
52031;SDS011;38044;45.148;39.604;2023-05-18T05:31:09;8.02;;;5.18;;
52031;SDS011;38044;45.148;39.604;2023-05-18T05:33:35;12.18;;;5.80;;
52031;SDS011;38044;45.148;39.604;2023-05-18T05:36:01;8.98;;;5.50;;
52031;SDS011;38044;45.148;39.604;2023-05-18T05:38:29;9.02;;;5.35;;
52031;SDS011;38044;45.148;39.604;2023-05-18T05:40:56;9.75;;;5.90;;
52031;SDS011;38044;45.148;39.604;2023-05-18T05:43:22;6.93;;;5.07;;
52031;SDS011;38044;45.148;39.604;2023-05-18T05:45:48;9.63;;;5.32;;
52031;SDS011;38044;45.148;39.604;2023-05-18T05:48:13;6.28;;;5.07;;
52031;SDS011;38044;45.148;39.604;2023-05-18T05:50:39;8.57;;;5.35;;
52031;SDS011;38044;45.148;39.604;2023-05-18T05:53:05;6.72;;;5.57;;
52031;SDS011;38044;45.148;39.604;2023-05-18T05:55:31;10.07;;;5.63;;
52031;SDS011;38044;45.148;39.604;2023-05-18T05:57:57;9.68;;;5.55;;
52031;SDS011;38044;45.148;39.604;2023-05-18T06:00:23;6.97;;;4.50;;
52031;SDS011;38044;45.148;39.604;2023-05-18T06:02:49;7.95;;;4.75;;
52031;SDS011;38044;45.148;39.604;2023-05-18T06:05:15;7.30;;;4.65;;
52031;SDS011;38044;45.148;39.604;2023-05-18T06:07:41;7.97;;;4.88;;
52031;SDS011;38044;45.148;39.604;2023-05-18T06:10:07;8.27;;;5.05;;
52031;SDS011;38044;45.148;39.604;2023-05-18T06:12:33;10.77;;;5.35;;
52031;SDS011;38044;45.148;39.604;2023-05-18T06:14:59;11.50;;;5.45;;
52031;SDS011;38044;45.148;39.604;2023-05-18T06:17:25;15.30;;;5.25;;
52031;SDS011;38044;45.148;39.604;2023-05-18T06:19:51;8.20;;;5.35;;
52031;SDS011;38044;45.148;39.604;2023-05-18T06:22:18;7.53;;;5.20;;
52031;SDS011;38044;45.148;39.604;2023-05-18T06:24:44;6.47;;;5.05;;
52031;SDS011;38044;45.148;39.604;2023-05-18T06:27:11;7.15;;;5.03;;
52031;SDS011;38044;45.148;39.604;2023-05-18T06:29:37;9.65;;;5.60;;
52031;SDS011;38044;45.148;39.604;2023-05-18T06:32:03;7.63;;;5.30;;
52031;SDS011;38044;45.148;39.604;2023-05-18T06:34:29;8.02;;;5.30;;
52031;SDS011;38044;45.148;39.604;2023-05-18T06:36:54;10.05;;;5.05;;
52031;SDS011;38044;45.148;39.604;2023-05-18T06:39:20;8.30;;;5.28;;
52031;SDS011;38044;45.148;39.604;2023-05-18T06:41:46;9.93;;;5.55;;
52031;SDS011;38044;45.148;39.604;2023-05-18T06:44:12;12.25;;;5.22;;
52031;SDS011;38044;45.148;39.604;2023-05-18T06:46:38;7.85;;;4.90;;
52031;SDS011;38044;45.148;39.604;2023-05-18T06:49:05;10.10;;;5.43;;
52031;SDS011;38044;45.148;39.604;2023-05-18T06:51:31;17.65;;;5.10;;
52031;SDS011;38044;45.148;39.604;2023-05-18T06:53:57;9.77;;;6.00;;
52031;SDS011;38044;45.148;39.604;2023-05-18T06:56:23;8.65;;;5.13;;
52031;SDS011;38044;45.148;39.604;2023-05-18T06:58:48;11.13;;;5.35;;
52031;SDS011;38044;45.148;39.604;2023-05-18T07:01:14;67.60;;;8.88;;
52031;SDS011;38044;45.148;39.604;2023-05-18T07:03:42;10.27;;;5.57;;
52031;SDS011;38044;45.148;39.604;2023-05-18T07:06:08;9.30;;;5.00;;
52031;SDS011;38044;45.148;39.604;2023-05-18T07:08:34;14.23;;;5.45;;
52031;SDS011;38044;45.148;39.604;2023-05-18T07:11:03;8.98;;;5.97;;
52031;SDS011;38044;45.148;39.604;2023-05-18T07:13:29;12.02;;;5.90;;
52031;SDS011;38044;45.148;39.604;2023-05-18T07:15:55;7.82;;;5.93;;
52031;SDS011;38044;45.148;39.604;2023-05-18T07:18:21;10.82;;;5.40;;
52031;SDS011;38044;45.148;39.604;2023-05-18T07:20:47;6.70;;;5.43;;
52031;SDS011;38044;45.148;39.604;2023-05-18T07:23:13;9.93;;;5.60;;
52031;SDS011;38044;45.148;39.604;2023-05-18T07:25:39;10.88;;;4.90;;
52031;SDS011;38044;45.148;39.604;2023-05-18T07:28:06;10.00;;;5.90;;
52031;SDS011;38044;45.148;39.604;2023-05-18T07:30:32;9.48;;;5.10;;
52031;SDS011;38044;45.148;39.604;2023-05-18T07:32:58;6.10;;;5.50;;
52031;SDS011;38044;45.148;39.604;2023-05-18T07:35:23;7.82;;;5.25;;
52031;SDS011;38044;45.148;39.604;2023-05-18T07:37:50;7.70;;;5.55;;
52031;SDS011;38044;45.148;39.604;2023-05-18T07:40:18;9.98;;;5.90;;
52031;SDS011;38044;45.148;39.604;2023-05-18T07:42:44;7.60;;;5.60;;
52031;SDS011;38044;45.148;39.604;2023-05-18T07:45:10;11.07;;;5.90;;
52031;SDS011;38044;45.148;39.604;2023-05-18T07:47:37;8.95;;;6.07;;
52031;SDS011;38044;45.148;39.604;2023-05-18T07:50:03;22.70;;;6.72;;
52031;SDS011;38044;45.148;39.604;2023-05-18T07:52:30;8.88;;;5.82;;
52031;SDS011;38044;45.148;39.604;2023-05-18T07:54:56;12.30;;;6.38;;
52031;SDS011;38044;45.148;39.604;2023-05-18T07:57:22;9.25;;;5.65;;
52031;SDS011;38044;45.148;39.604;2023-05-18T07:59:49;8.07;;;6.20;;
52031;SDS011;38044;45.148;39.604;2023-05-18T08:02:15;7.60;;;6.15;;
52031;SDS011;38044;45.148;39.604;2023-05-18T08:04:41;11.00;;;6.60;;
52031;SDS011;38044;45.148;39.604;2023-05-18T08:07:07;9.30;;;5.93;;
52031;SDS011;38044;45.148;39.604;2023-05-18T08:09:34;10.43;;;6.63;;
52031;SDS011;38044;45.148;39.604;2023-05-18T08:12:00;10.80;;;6.38;;
52031;SDS011;38044;45.148;39.604;2023-05-18T08:14:26;36.97;;;9.57;;
52031;SDS011;38044;45.148;39.604;2023-05-18T08:16:52;11.90;;;7.28;;
52031;SDS011;38044;45.148;39.604;2023-05-18T08:19:18;10.55;;;6.93;;
52031;SDS011;38044;45.148;39.604;2023-05-18T08:21:43;12.68;;;7.05;;
52031;SDS011;38044;45.148;39.604;2023-05-18T08:24:10;11.95;;;6.40;;
52031;SDS011;38044;45.148;39.604;2023-05-18T08:26:36;11.02;;;7.10;;
52031;SDS011;38044;45.148;39.604;2023-05-18T08:29:02;8.18;;;6.22;;
52031;SDS011;38044;45.148;39.604;2023-05-18T08:31:39;13.48;;;7.68;;
52031;SDS011;38044;45.148;39.604;2023-05-18T08:34:06;10.40;;;7.43;;
52031;SDS011;38044;45.148;39.604;2023-05-18T08:36:33;11.30;;;6.60;;
52031;SDS011;38044;45.148;39.604;2023-05-18T08:39:00;14.38;;;9.63;;
52031;SDS011;38044;45.148;39.604;2023-05-18T08:41:35;10.30;;;8.25;;
52031;SDS011;38044;45.148;39.604;2023-05-18T08:44:10;10.02;;;7.60;;
52031;SDS011;38044;45.148;39.604;2023-05-18T08:46:50;13.45;;;7.55;;
52031;SDS011;38044;45.148;39.604;2023-05-18T08:49:17;9.95;;;7.10;;
52031;SDS011;38044;45.148;39.604;2023-05-18T08:51:53;10.45;;;7.78;;
52031;SDS011;38044;45.148;39.604;2023-05-18T08:54:23;13.65;;;8.43;;
52031;SDS011;38044;45.148;39.604;2023-05-18T08:56:49;10.05;;;7.47;;
52031;SDS011;38044;45.148;39.604;2023-05-18T08:59:26;10.27;;;7.32;;
52031;SDS011;38044;45.148;39.604;2023-05-18T09:01:55;10.82;;;7.20;;
52031;SDS011;38044;45.148;39.604;2023-05-18T09:04:22;9.50;;;6.82;;
52031;SDS011;38044;45.148;39.604;2023-05-18T09:06:49;9.85;;;7.30;;
52031;SDS011;38044;45.148;39.604;2023-05-18T09:09:21;10.65;;;7.75;;
52031;SDS011;38044;45.148;39.604;2023-05-18T09:11:48;15.02;;;7.95;;
52031;SDS011;38044;45.148;39.604;2023-05-18T09:14:15;12.98;;;7.28;;
52031;SDS011;38044;45.148;39.604;2023-05-18T09:16:41;14.15;;;8.20;;
52031;SDS011;38044;45.148;39.604;2023-05-18T09:19:06;12.82;;;8.40;;
52031;SDS011;38044;45.148;39.604;2023-05-18T09:21:32;13.55;;;7.88;;
52031;SDS011;38044;45.148;39.604;2023-05-18T09:23:59;14.60;;;7.85;;
52031;SDS011;38044;45.148;39.604;2023-05-18T09:26:25;14.05;;;8.50;;
52031;SDS011;38044;45.148;39.604;2023-05-18T09:28:51;13.10;;;8.55;;
52031;SDS011;38044;45.148;39.604;2023-05-18T09:31:18;18.05;;;8.05;;
52031;SDS011;38044;45.148;39.604;2023-05-18T09:33:46;14.15;;;9.05;;
52031;SDS011;38044;45.148;39.604;2023-05-18T09:36:13;11.05;;;8.45;;
52031;SDS011;38044;45.148;39.604;2023-05-18T09:38:42;13.13;;;8.43;;
52031;SDS011;38044;45.148;39.604;2023-05-18T09:41:15;13.95;;;8.55;;
52031;SDS011;38044;45.148;39.604;2023-05-18T09:43:42;16.70;;;8.95;;
52031;SDS011;38044;45.148;39.604;2023-05-18T09:46:10;15.35;;;8.15;;
52031;SDS011;38044;45.148;39.604;2023-05-18T09:48:40;16.95;;;9.57;;
52031;SDS011;38044;45.148;39.604;2023-05-18T09:51:11;11.60;;;8.65;;
52031;SDS011;38044;45.148;39.604;2023-05-18T09:53:48;11.55;;;8.10;;
52031;SDS011;38044;45.148;39.604;2023-05-18T09:56:19;12.32;;;8.90;;
52031;SDS011;38044;45.148;39.604;2023-05-18T09:58:48;13.27;;;9.27;;
52031;SDS011;38044;45.148;39.604;2023-05-18T10:01:14;15.57;;;9.55;;
52031;SDS011;38044;45.148;39.604;2023-05-18T10:03:39;13.88;;;8.13;;
52031;SDS011;38044;45.148;39.604;2023-05-18T10:06:06;13.20;;;9.52;;
52031;SDS011;38044;45.148;39.604;2023-05-18T10:08:34;17.65;;;10.23;;
52031;SDS011;38044;45.148;39.604;2023-05-18T10:11:01;17.23;;;8.48;;
52031;SDS011;38044;45.148;39.604;2023-05-18T10:13:28;14.73;;;9.73;;
52031;SDS011;38044;45.148;39.604;2023-05-18T10:16:06;15.88;;;8.98;;
52031;SDS011;38044;45.148;39.604;2023-05-18T10:18:35;15.27;;;9.25;;
52031;SDS011;38044;45.148;39.604;2023-05-18T10:21:03;13.68;;;8.40;;
52031;SDS011;38044;45.148;39.604;2023-05-18T10:23:30;15.30;;;8.63;;
52031;SDS011;38044;45.148;39.604;2023-05-18T10:25:58;15.40;;;8.85;;
52031;SDS011;38044;45.148;39.604;2023-05-18T10:28:26;15.52;;;8.93;;
52031;SDS011;38044;45.148;39.604;2023-05-18T10:30:55;17.92;;;9.18;;
52031;SDS011;38044;45.148;39.604;2023-05-18T10:33:23;13.20;;;8.07;;
52031;SDS011;38044;45.148;39.604;2023-05-18T10:35:51;19.05;;;9.48;;
52031;SDS011;38044;45.148;39.604;2023-05-18T10:38:19;17.30;;;9.38;;
52031;SDS011;38044;45.148;39.604;2023-05-18T10:40:47;11.75;;;8.07;;
52031;SDS011;38044;45.148;39.604;2023-05-18T10:43:18;16.52;;;9.23;;
52031;SDS011;38044;45.148;39.604;2023-05-18T10:45:55;13.60;;;8.70;;
52031;SDS011;38044;45.148;39.604;2023-05-18T10:48:26;12.82;;;9.05;;
52031;SDS011;38044;45.148;39.604;2023-05-18T10:50:56;12.35;;;9.38;;
52031;SDS011;38044;45.148;39.604;2023-05-18T10:53:23;22.08;;;9.73;;
52031;SDS011;38044;45.148;39.604;2023-05-18T10:55:51;13.25;;;8.95;;
52031;SDS011;38044;45.148;39.604;2023-05-18T10:58:19;11.45;;;8.30;;
52031;SDS011;38044;45.148;39.604;2023-05-18T11:00:51;19.77;;;9.18;;
52031;SDS011;38044;45.148;39.604;2023-05-18T11:03:20;13.00;;;8.75;;
52031;SDS011;38044;45.148;39.604;2023-05-18T11:05:50;13.75;;;9.18;;
52031;SDS011;38044;45.148;39.604;2023-05-18T11:08:31;16.80;;;9.07;;
52031;SDS011;38044;45.148;39.604;2023-05-18T11:11:01;31.40;;;10.07;;
52031;SDS011;38044;45.148;39.604;2023-05-18T11:13:32;11.27;;;8.27;;
52031;SDS011;38044;45.148;39.604;2023-05-18T11:18:36;19.63;;;8.80;;
52031;SDS011;38044;45.148;39.604;2023-05-18T11:21:17;21.20;;;8.93;;
52031;SDS011;38044;45.148;39.604;2023-05-18T11:24:12;10.73;;;7.80;;
52031;SDS011;38044;45.148;39.604;2023-05-18T11:26:45;13.80;;;8.93;;
52031;SDS011;38044;45.148;39.604;2023-05-18T11:29:33;15.68;;;7.97;;
52031;SDS011;38044;45.148;39.604;2023-05-18T11:32:19;9.15;;;7.20;;
52031;SDS011;38044;45.148;39.604;2023-05-18T11:34:50;13.13;;;8.10;;
52031;SDS011;38044;45.148;39.604;2023-05-18T11:38:02;27.83;;;9.35;;
52031;SDS011;38044;45.148;39.604;2023-05-18T11:40:03;12.80;;;8.13;;
52031;SDS011;38044;45.148;39.604;2023-05-18T11:42:33;11.35;;;7.57;;
52031;SDS011;38044;45.148;39.604;2023-05-18T11:45:06;16.00;;;7.82;;
52031;SDS011;38044;45.148;39.604;2023-05-18T11:47:32;53.05;;;9.35;;
52031;SDS011;38044;45.148;39.604;2023-05-18T11:50:00;13.40;;;6.72;;
52031;SDS011;38044;45.148;39.604;2023-05-18T11:52:26;11.05;;;5.93;;
52031;SDS011;38044;45.148;39.604;2023-05-18T11:54:53;10.68;;;6.97;;
52031;SDS011;38044;45.148;39.604;2023-05-18T11:57:24;16.30;;;7.10;;
52031;SDS011;38044;45.148;39.604;2023-05-18T11:59:55;9.88;;;6.50;;
52031;SDS011;38044;45.148;39.604;2023-05-18T12:02:31;8.90;;;5.97;;
52031;SDS011;38044;45.148;39.604;2023-05-18T12:04:59;25.33;;;7.03;;
52031;SDS011;38044;45.148;39.604;2023-05-18T12:07:26;17.05;;;6.85;;
52031;SDS011;38044;45.148;39.604;2023-05-18T12:10:05;13.60;;;6.47;;
52031;SDS011;38044;45.148;39.604;2023-05-18T12:12:35;9.10;;;5.85;;
52031;SDS011;38044;45.148;39.604;2023-05-18T12:15:02;23.80;;;7.97;;
52031;SDS011;38044;45.148;39.604;2023-05-18T12:17:37;10.68;;;6.90;;
52031;SDS011;38044;45.148;39.604;2023-05-18T12:20:07;8.60;;;6.38;;
52031;SDS011;38044;45.148;39.604;2023-05-18T12:22:37;9.57;;;6.22;;
52031;SDS011;38044;45.148;39.604;2023-05-18T12:25:16;12.50;;;7.13;;
52031;SDS011;38044;45.148;39.604;2023-05-18T12:27:43;13.55;;;7.20;;
52031;SDS011;38044;45.148;39.604;2023-05-18T12:30:15;11.85;;;7.00;;
52031;SDS011;38044;45.148;39.604;2023-05-18T12:32:43;11.52;;;7.80;;
52031;SDS011;38044;45.148;39.604;2023-05-18T12:35:13;16.58;;;8.00;;
52031;SDS011;38044;45.148;39.604;2023-05-18T12:37:42;10.52;;;7.63;;
52031;SDS011;38044;45.148;39.604;2023-05-18T12:40:09;14.18;;;7.90;;
52031;SDS011;38044;45.148;39.604;2023-05-18T12:42:40;13.25;;;7.30;;
52031;SDS011;38044;45.148;39.604;2023-05-18T12:45:25;12.85;;;8.13;;
52031;SDS011;38044;45.148;39.604;2023-05-18T12:47:53;11.45;;;7.97;;
52031;SDS011;38044;45.148;39.604;2023-05-18T12:50:20;10.40;;;7.53;;
52031;SDS011;38044;45.148;39.604;2023-05-18T12:52:47;10.30;;;6.95;;
52031;SDS011;38044;45.148;39.604;2023-05-18T12:55:17;15.27;;;7.00;;
52031;SDS011;38044;45.148;39.604;2023-05-18T12:57:58;11.90;;;6.95;;
52031;SDS011;38044;45.148;39.604;2023-05-18T13:00:36;14.80;;;7.18;;
52031;SDS011;38044;45.148;39.604;2023-05-18T13:03:05;17.73;;;8.43;;
52031;SDS011;38044;45.148;39.604;2023-05-18T13:05:38;12.70;;;7.03;;
52031;SDS011;38044;45.148;39.604;2023-05-18T13:08:06;14.35;;;9.05;;
52031;SDS011;38044;45.148;39.604;2023-05-18T13:10:32;18.88;;;8.68;;
52031;SDS011;38044;45.148;39.604;2023-05-18T13:12:59;20.50;;;8.70;;
52031;SDS011;38044;45.148;39.604;2023-05-18T13:15:34;15.70;;;8.63;;
52031;SDS011;38044;45.148;39.604;2023-05-18T13:18:02;12.00;;;8.35;;
52031;SDS011;38044;45.148;39.604;2023-05-18T13:20:30;11.75;;;7.53;;
52031;SDS011;38044;45.148;39.604;2023-05-18T13:22:58;13.25;;;8.68;;
52031;SDS011;38044;45.148;39.604;2023-05-18T13:25:28;35.30;;;10.80;;
52031;SDS011;38044;45.148;39.604;2023-05-18T13:27:56;15.68;;;9.18;;
52031;SDS011;38044;45.148;39.604;2023-05-18T13:30:22;14.82;;;9.95;;
52031;SDS011;38044;45.148;39.604;2023-05-18T13:32:48;13.05;;;9.70;;
52031;SDS011;38044;45.148;39.604;2023-05-18T13:35:17;13.70;;;9.55;;
52031;SDS011;38044;45.148;39.604;2023-05-18T13:37:44;15.57;;;10.52;;
52031;SDS011;38044;45.148;39.604;2023-05-18T13:40:13;18.77;;;10.25;;
52031;SDS011;38044;45.148;39.604;2023-05-18T13:42:39;21.23;;;10.10;;
52031;SDS011;38044;45.148;39.604;2023-05-18T13:45:06;23.33;;;10.82;;
52031;SDS011;38044;45.148;39.604;2023-05-18T13:47:32;24.77;;;10.77;;
52031;SDS011;38044;45.148;39.604;2023-05-18T13:49:58;15.93;;;10.05;;
52031;SDS011;38044;45.148;39.604;2023-05-18T13:52:24;15.38;;;9.52;;
52031;SDS011;38044;45.148;39.604;2023-05-18T13:54:50;15.57;;;9.95;;
52031;SDS011;38044;45.148;39.604;2023-05-18T13:57:16;14.65;;;9.63;;
52031;SDS011;38044;45.148;39.604;2023-05-18T13:59:42;19.33;;;10.48;;
52031;SDS011;38044;45.148;39.604;2023-05-18T14:02:08;17.17;;;10.63;;
52031;SDS011;38044;45.148;39.604;2023-05-18T14:04:34;14.50;;;10.35;;
52031;SDS011;38044;45.148;39.604;2023-05-18T14:07:00;33.00;;;12.00;;
52031;SDS011;38044;45.148;39.604;2023-05-18T14:09:26;21.10;;;10.48;;
52031;SDS011;38044;45.148;39.604;2023-05-18T14:11:52;21.00;;;11.20;;
52031;SDS011;38044;45.148;39.604;2023-05-18T14:14:19;17.73;;;11.38;;
52031;SDS011;38044;45.148;39.604;2023-05-18T14:16:44;19.52;;;10.52;;
52031;SDS011;38044;45.148;39.604;2023-05-18T14:19:10;15.85;;;10.13;;
52031;SDS011;38044;45.148;39.604;2023-05-18T14:21:36;22.95;;;11.10;;
52031;SDS011;38044;45.148;39.604;2023-05-18T14:24:02;17.85;;;11.18;;
52031;SDS011;38044;45.148;39.604;2023-05-18T14:26:34;19.10;;;11.05;;
52031;SDS011;38044;45.148;39.604;2023-05-18T14:29:01;27.00;;;12.15;;
52031;SDS011;38044;45.148;39.604;2023-05-18T14:31:28;21.00;;;10.95;;
52031;SDS011;38044;45.148;39.604;2023-05-18T14:33:53;18.63;;;11.52;;
52031;SDS011;38044;45.148;39.604;2023-05-18T14:36:19;20.73;;;11.43;;
52031;SDS011;38044;45.148;39.604;2023-05-18T14:38:45;16.23;;;11.10;;
52031;SDS011;38044;45.148;39.604;2023-05-18T14:41:11;19.90;;;11.32;;
52031;SDS011;38044;45.148;39.604;2023-05-18T14:43:37;13.60;;;10.23;;